createdAt,value
2018-09-18T00:00:29.786Z,6.60
2018-09-18T00:03:02.362Z,6.60
2018-09-18T00:05:35.663Z,7.90
2018-09-18T00:08:08.176Z,6.50
2018-09-18T00:10:41.360Z,7.00
2018-09-18T00:13:16.389Z,7.80
2018-09-18T00:15:48.664Z,7.20
2018-09-18T00:18:21.009Z,7.30
2018-09-18T00:20:54.089Z,8.50
2018-09-18T00:23:26.647Z,8.20
2018-09-18T00:25:59.176Z,7.00
2018-09-18T00:28:32.169Z,7.20
2018-09-18T00:31:05.486Z,6.90
2018-09-18T00:33:38.904Z,6.80
2018-09-18T00:36:11.572Z,6.40
2018-09-18T00:38:44.000Z,6.90
2018-09-18T00:43:55.265Z,5.90
2018-09-18T00:46:28.465Z,6.90
2018-09-18T00:49:01.013Z,6.30
2018-09-18T00:51:33.545Z,6.20
2018-09-18T00:54:05.998Z,6.40
2018-09-18T00:56:38.693Z,7.20
2018-09-18T00:59:12.126Z,7.20
2018-09-18T01:01:44.516Z,7.90
2018-09-18T01:04:18.174Z,8.00
2018-09-18T01:06:50.662Z,9.50
2018-09-18T01:09:23.501Z,9.40
2018-09-18T01:11:58.899Z,8.60
2018-09-18T01:14:35.293Z,9.30
2018-09-18T01:17:08.357Z,9.80
2018-09-18T01:19:41.401Z,10.30
2018-09-18T01:22:14.119Z,10.20
2018-09-18T01:24:47.589Z,10.60
2018-09-18T01:27:20.468Z,11.60
2018-09-18T01:29:53.110Z,11.70
2018-09-18T01:32:27.474Z,11.00
2018-09-18T01:35:00.716Z,11.60
2018-09-18T01:37:34.050Z,12.40
2018-09-18T01:40:07.112Z,11.90
2018-09-18T01:42:39.860Z,12.30
2018-09-18T01:45:12.152Z,10.60
2018-09-18T01:47:44.851Z,10.10
2018-09-18T01:50:17.401Z,10.00
2018-09-18T01:52:49.555Z,12.10
2018-09-18T01:55:22.657Z,11.70
2018-09-18T01:57:54.977Z,11.00
2018-09-18T02:00:27.882Z,11.50
2018-09-18T02:03:00.445Z,11.30
2018-09-18T02:05:33.037Z,12.80
2018-09-18T02:08:05.784Z,11.60
2018-09-18T02:10:38.220Z,11.50
2018-09-18T02:13:10.330Z,11.90
2018-09-18T02:15:43.196Z,11.70
2018-09-18T02:18:15.660Z,13.20
2018-09-18T02:20:47.985Z,12.20
2018-09-18T02:23:20.398Z,13.10
2018-09-18T02:25:53.758Z,13.70
2018-09-18T02:28:26.461Z,13.90
2018-09-18T02:30:59.111Z,14.40
2018-09-18T02:33:31.768Z,15.10
2018-09-18T02:36:04.408Z,15.10
2018-09-18T02:38:37.359Z,15.20
2018-09-18T02:41:09.960Z,16.10
2018-09-18T02:43:42.654Z,16.30
2018-09-18T02:46:15.354Z,15.90
2018-09-18T02:48:48.078Z,15.70
2018-09-18T02:51:20.671Z,16.00
2018-09-18T02:53:53.455Z,16.30
2018-09-18T02:56:25.823Z,16.30
2018-09-18T02:58:58.097Z,16.90
2018-09-18T03:01:30.514Z,16.40
2018-09-18T03:04:03.417Z,16.70
2018-09-18T03:06:35.971Z,17.30
2018-09-18T03:09:10.631Z,17.30
2018-09-18T03:11:43.044Z,17.50
2018-09-18T03:14:15.328Z,18.20
2018-09-18T03:16:48.108Z,18.10
2018-09-18T03:19:20.879Z,18.60
2018-09-18T03:21:53.405Z,18.80
2018-09-18T03:24:26.621Z,19.40
2018-09-18T03:26:58.512Z,19.70
2018-09-18T03:29:31.161Z,20.20
2018-09-18T03:32:04.072Z,20.90
2018-09-18T03:34:36.702Z,20.40
2018-09-18T03:37:09.729Z,21.30
2018-09-18T03:39:42.473Z,22.30
2018-09-18T03:42:14.825Z,23.50
2018-09-18T03:44:46.613Z,24.60
2018-09-18T03:47:22.552Z,24.60
2018-09-18T03:49:55.035Z,24.70
2018-09-18T03:52:27.419Z,25.30
2018-09-18T03:54:59.845Z,26.20
2018-09-18T03:57:32.174Z,26.00
2018-09-18T04:00:04.489Z,26.40
2018-09-18T04:02:36.906Z,26.30
2018-09-18T04:05:08.919Z,27.10
2018-09-18T04:07:41.408Z,27.20
2018-09-18T04:10:13.677Z,27.30
2018-09-18T04:12:45.964Z,27.40
2018-09-18T04:15:18.434Z,27.80
2018-09-18T04:17:51.370Z,27.80
2018-09-18T04:20:24.692Z,27.80
2018-09-18T04:22:57.066Z,28.20
2018-09-18T04:25:29.123Z,28.10
2018-09-18T04:28:01.585Z,28.40
2018-09-18T04:30:33.806Z,28.70
2018-09-18T04:33:06.343Z,29.20
2018-09-18T04:35:39.220Z,29.30
2018-09-18T04:38:11.717Z,30.00
2018-09-18T04:40:43.895Z,29.70
2018-09-18T04:43:16.490Z,29.70
2018-09-18T04:45:48.795Z,29.90
2018-09-18T04:48:20.936Z,30.30
2018-09-18T04:50:53.263Z,31.00
2018-09-18T04:53:25.712Z,32.10
2018-09-18T04:55:57.964Z,32.30
2018-09-18T04:58:30.671Z,32.30
2018-09-18T05:01:03.695Z,32.80
2018-09-18T05:03:36.154Z,32.90
2018-09-18T05:06:08.464Z,33.40
2018-09-18T05:08:40.548Z,33.60
2018-09-18T05:11:12.626Z,33.60
2018-09-18T05:13:45.001Z,33.40
2018-09-18T05:16:18.279Z,34.00
2018-09-18T05:18:50.742Z,33.60
2018-09-18T05:21:23.365Z,34.40
2018-09-18T05:23:55.711Z,34.50
2018-09-18T05:26:28.060Z,34.90
2018-09-18T05:29:00.213Z,34.90
2018-09-18T05:31:32.466Z,35.10
2018-09-18T05:34:04.781Z,35.60
2018-09-18T05:36:37.186Z,36.00
2018-09-18T05:39:12.736Z,36.60
2018-09-18T05:41:45.122Z,36.80
2018-09-18T05:44:17.629Z,37.30
2018-09-18T05:46:50.174Z,37.80
2018-09-18T05:49:23.013Z,38.10
2018-09-18T05:51:55.363Z,38.10
2018-09-18T05:54:27.702Z,38.50
2018-09-18T05:56:59.657Z,38.70
2018-09-18T05:59:32.050Z,38.70
2018-09-18T06:02:04.033Z,39.20
2018-09-18T06:04:36.432Z,39.50
2018-09-18T06:07:08.749Z,39.80
2018-09-18T06:09:40.781Z,39.80
2018-09-18T06:12:12.767Z,40.40
2018-09-18T06:14:44.800Z,40.50
2018-09-18T06:17:17.348Z,40.80
2018-09-18T06:19:49.962Z,40.90
2018-09-18T06:22:22.114Z,42.00
2018-09-18T06:24:54.347Z,41.60
2018-09-18T06:27:26.829Z,41.60
2018-09-18T06:29:59.230Z,42.00
2018-09-18T06:32:31.728Z,42.40
2018-09-18T06:35:04.142Z,42.30
2018-09-18T06:37:36.330Z,42.60
2018-09-18T06:40:08.611Z,42.60
2018-09-18T06:42:40.650Z,43.10
2018-09-18T06:45:12.930Z,44.10
2018-09-18T06:47:45.138Z,43.90
2018-09-18T06:50:17.847Z,43.60
2018-09-18T06:52:50.119Z,44.00
2018-09-18T06:55:22.278Z,44.50
2018-09-18T06:57:54.698Z,44.50
2018-09-18T07:00:27.087Z,44.90
2018-09-18T07:02:59.374Z,45.00
2018-09-18T07:05:32.048Z,45.60
2018-09-18T07:08:04.348Z,45.80
2018-09-18T07:10:37.310Z,45.60
2018-09-18T07:13:09.557Z,45.60
2018-09-18T07:15:41.887Z,46.40
2018-09-18T07:18:14.489Z,46.90
2018-09-18T07:20:46.596Z,46.90
2018-09-18T07:23:19.169Z,46.70
2018-09-18T07:25:51.876Z,46.90
2018-09-18T07:28:24.073Z,47.10
2018-09-18T07:30:56.157Z,47.20
2018-09-18T07:33:28.413Z,47.80
2018-09-18T07:36:00.859Z,48.20
2018-09-18T07:38:33.373Z,49.20
2018-09-18T07:41:05.961Z,49.70
2018-09-18T07:43:37.982Z,49.80
2018-09-18T07:46:10.310Z,50.20
2018-09-18T07:48:42.452Z,50.00
2018-09-18T07:51:14.430Z,50.40
2018-09-18T07:53:46.471Z,50.40
2018-09-18T07:56:19.000Z,51.10
2018-09-18T07:58:51.142Z,51.20
2018-09-18T08:01:23.610Z,51.30
2018-09-18T08:03:55.841Z,52.30
2018-09-18T08:06:28.033Z,52.30
2018-09-18T08:09:00.590Z,54.20
2018-09-18T08:11:33.072Z,54.10
2018-09-18T08:14:05.480Z,54.40
2018-09-18T08:16:37.710Z,55.20
2018-09-18T08:19:10.113Z,55.20
2018-09-18T08:21:42.452Z,55.80
2018-09-18T08:24:14.502Z,56.00
2018-09-18T08:26:46.803Z,56.30
2018-09-18T08:29:19.442Z,56.70
2018-09-18T08:31:51.785Z,57.20
2018-09-18T08:34:24.246Z,56.90
2018-09-18T08:36:56.294Z,57.40
2018-09-18T08:39:28.284Z,58.00
2018-09-18T08:42:00.413Z,59.00
2018-09-18T08:44:32.554Z,59.00
2018-09-18T08:47:05.325Z,60.30
2018-09-18T08:49:37.682Z,60.30
2018-09-18T08:52:10.359Z,60.40
2018-09-18T08:54:43.454Z,60.80
2018-09-18T08:57:16.202Z,61.30
2018-09-18T08:59:48.605Z,61.30
2018-09-18T09:02:21.145Z,61.90
2018-09-18T09:04:53.311Z,62.30
2018-09-18T09:07:25.696Z,62.20
2018-09-18T09:09:58.052Z,62.60
2018-09-18T09:12:30.391Z,62.90
2018-09-18T09:15:02.697Z,62.80
2018-09-18T09:17:35.155Z,62.80
2018-09-18T09:20:07.605Z,62.90
2018-09-18T09:22:39.919Z,62.90
2018-09-18T09:25:12.361Z,62.80
2018-09-18T09:27:44.633Z,62.80
2018-09-18T09:30:17.379Z,63.00
2018-09-18T09:32:49.614Z,63.00
2018-09-18T09:35:21.793Z,63.40
2018-09-18T09:37:53.910Z,64.30
2018-09-18T09:40:26.214Z,64.40
2018-09-18T09:42:58.486Z,64.60
2018-09-18T09:45:30.680Z,64.90
2018-09-18T09:48:02.761Z,65.50
2018-09-18T09:50:35.021Z,65.40
2018-09-18T09:53:07.365Z,65.30
2018-09-18T09:55:40.018Z,66.10
2018-09-18T09:58:12.165Z,66.60
2018-09-18T10:00:49.130Z,66.00
2018-09-18T10:03:21.341Z,66.20
2018-09-18T10:05:53.433Z,66.30
2018-09-18T10:08:26.012Z,65.80
2018-09-18T10:10:58.149Z,66.60
2018-09-18T10:13:30.483Z,66.70
2018-09-18T10:16:02.591Z,66.70
2018-09-18T10:18:35.071Z,66.90
2018-09-18T10:21:06.930Z,66.50
2018-09-18T10:23:39.413Z,66.60
2018-09-18T10:26:11.775Z,66.70
2018-09-18T10:28:44.265Z,66.40
2018-09-18T10:31:17.269Z,66.70
2018-09-18T10:33:50.145Z,66.30
2018-09-18T10:36:22.759Z,66.20
2018-09-18T10:38:55.018Z,66.30
2018-09-18T10:41:27.618Z,66.20
2018-09-18T10:43:59.904Z,66.10
2018-09-18T10:46:32.097Z,66.20
2018-09-18T10:49:04.529Z,66.00
2018-09-18T10:51:36.657Z,66.40
2018-09-18T10:54:08.809Z,66.40
2018-09-18T10:56:41.222Z,66.50
2018-09-18T10:59:13.202Z,66.30
2018-09-18T11:01:46.053Z,67.20
2018-09-18T11:04:18.530Z,66.70
2018-09-18T11:06:50.773Z,67.00
2018-09-18T11:09:23.109Z,67.10
2018-09-18T11:11:55.359Z,67.70
2018-09-18T11:14:27.757Z,67.90
2018-09-18T11:17:00.145Z,68.30
2018-09-18T11:19:32.380Z,68.40
2018-09-18T11:22:04.717Z,68.30
2018-09-18T11:24:37.505Z,68.30
2018-09-18T11:27:09.626Z,68.90
2018-09-18T11:29:42.041Z,68.90
2018-09-18T11:32:14.593Z,69.90
2018-09-18T11:34:46.918Z,69.90
2018-09-18T11:37:19.904Z,70.40
2018-09-18T11:39:52.318Z,70.70
2018-09-18T11:42:24.460Z,70.90
2018-09-18T11:44:57.009Z,71.20
2018-09-18T11:47:29.125Z,71.50
2018-09-18T11:50:01.287Z,71.80
2018-09-18T11:52:33.643Z,71.80
2018-09-18T11:55:06.565Z,71.90
2018-09-18T11:57:38.777Z,71.70
2018-09-18T12:00:11.181Z,71.70
2018-09-18T12:02:43.584Z,71.40
2018-09-18T12:05:16.142Z,71.90
2018-09-18T12:07:48.269Z,71.60
2018-09-18T12:10:20.839Z,71.40
2018-09-18T12:12:53.492Z,71.30
2018-09-18T12:15:25.753Z,71.10
2018-09-18T12:17:58.160Z,71.20
2018-09-18T12:20:30.544Z,71.40
2018-09-18T12:23:02.730Z,71.80
2018-09-18T12:25:35.296Z,71.60
2018-09-18T12:28:07.498Z,71.50
2018-09-18T12:30:39.694Z,71.80
2018-09-18T12:33:11.990Z,72.20
2018-09-18T12:35:44.185Z,71.60
2018-09-18T12:38:17.096Z,71.90
2018-09-18T12:40:49.526Z,72.20
2018-09-18T12:43:22.058Z,72.20
2018-09-18T12:45:54.475Z,72.20
2018-09-18T12:48:26.601Z,72.60
2018-09-18T12:50:58.714Z,72.40
2018-09-18T12:53:31.219Z,72.30
2018-09-18T12:56:03.594Z,72.40
2018-09-18T12:58:36.310Z,73.00
2018-09-18T13:01:09.141Z,73.70
2018-09-18T13:03:41.484Z,73.90
2018-09-18T13:06:13.803Z,73.80
2018-09-18T13:08:46.349Z,73.80
2018-09-18T13:11:19.531Z,74.20
2018-09-18T13:13:51.940Z,74.40
2018-09-18T13:16:24.006Z,74.00
2018-09-18T13:18:56.458Z,74.30
2018-09-18T13:21:29.206Z,74.30
2018-09-18T13:24:01.724Z,74.30
2018-09-18T13:26:34.211Z,74.40
2018-09-18T13:29:06.737Z,74.60
2018-09-18T13:31:39.203Z,74.20
2018-09-18T13:34:11.329Z,74.20
2018-09-18T13:36:43.825Z,74.30
2018-09-18T13:39:16.022Z,74.50
2018-09-18T13:41:48.550Z,74.40
2018-09-18T13:44:20.838Z,74.50
2018-09-18T13:46:53.017Z,74.90
2018-09-18T13:49:25.633Z,75.30
2018-09-18T13:51:57.612Z,75.70
2018-09-18T13:54:30.025Z,75.90
2018-09-18T13:57:02.390Z,75.80
2018-09-18T13:59:35.056Z,76.00
2018-09-18T14:02:08.152Z,75.90
2018-09-18T14:04:40.399Z,75.80
2018-09-18T14:07:12.529Z,76.10
2018-09-18T14:09:45.259Z,76.00
2018-09-18T14:12:18.010Z,76.20
2018-09-18T14:14:50.273Z,76.30
2018-09-18T14:17:23.405Z,76.40
2018-09-18T14:19:55.705Z,76.40
2018-09-18T14:22:28.045Z,76.50
2018-09-18T14:25:00.659Z,76.50
2018-09-18T14:27:32.848Z,76.80
2018-09-18T14:30:05.389Z,77.20
2018-09-18T14:32:38.280Z,78.10
2018-09-18T14:35:10.809Z,79.00
2018-09-18T14:37:43.992Z,79.70
2018-09-18T14:40:16.473Z,80.90
2018-09-18T14:42:48.689Z,81.30
2018-09-18T14:45:20.882Z,81.80
2018-09-18T14:47:53.186Z,82.30
2018-09-18T14:50:25.580Z,82.40
2018-09-18T14:52:58.478Z,82.20
2018-09-18T14:55:31.034Z,82.30
2018-09-18T14:58:03.519Z,82.10
2018-09-18T15:00:35.778Z,81.70
2018-09-18T15:03:08.035Z,81.50
2018-09-18T15:05:40.780Z,81.00
2018-09-18T15:08:12.977Z,80.20
2018-09-18T15:10:45.593Z,79.20
2018-09-18T15:13:17.910Z,77.80
2018-09-18T15:15:50.242Z,76.70
2018-09-18T15:18:22.182Z,75.20
2018-09-18T15:20:54.261Z,73.80
2018-09-18T15:23:26.183Z,73.50
2018-09-18T15:25:58.404Z,73.10
2018-09-18T15:28:30.555Z,70.30
2018-09-18T15:31:03.188Z,69.20
2018-09-18T15:33:35.515Z,69.00
2018-09-18T15:36:07.818Z,69.00
2018-09-18T15:38:40.450Z,67.60
2018-09-18T15:41:12.969Z,66.00
2018-09-18T15:43:45.560Z,66.30
2018-09-18T15:46:18.232Z,65.10
2018-09-18T15:48:50.405Z,64.40
2018-09-18T15:51:22.607Z,65.20
2018-09-18T15:53:55.024Z,66.30
2018-09-18T15:56:27.382Z,63.00
2018-09-18T15:58:59.886Z,65.00
2018-09-18T16:01:32.751Z,61.00
2018-09-18T16:04:05.414Z,60.10
2018-09-18T16:06:37.624Z,60.10
2018-09-18T16:09:12.023Z,60.10
2018-09-18T16:11:44.397Z,56.10
2018-09-18T16:14:16.732Z,57.80
2018-09-18T16:16:49.511Z,58.10
2018-09-18T16:19:21.946Z,58.40
2018-09-18T16:21:54.834Z,57.00
2018-09-18T16:24:27.464Z,55.50
2018-09-18T16:27:00.077Z,52.50
2018-09-18T16:29:32.669Z,51.40
2018-09-18T16:32:04.916Z,46.40
2018-09-18T16:34:37.318Z,45.20
2018-09-18T16:37:09.516Z,44.00
2018-09-18T16:39:41.949Z,42.30
2018-09-18T16:42:14.383Z,42.10
2018-09-18T16:44:46.577Z,44.00
2018-09-18T16:47:19.125Z,36.00
2018-09-18T16:49:51.654Z,35.80
2018-09-18T16:52:23.873Z,33.60
2018-09-18T16:54:56.119Z,31.90
2018-09-18T16:57:28.460Z,31.00
2018-09-18T17:00:00.939Z,30.80
2018-09-18T17:02:33.588Z,33.50
2018-09-18T17:05:05.914Z,33.30
2018-09-18T17:07:38.127Z,33.20
2018-09-18T17:10:10.651Z,33.20
2018-09-18T17:12:43.078Z,35.50
2018-09-18T17:15:15.642Z,34.90
2018-09-18T17:17:47.939Z,38.00
2018-09-18T17:20:20.019Z,36.80
2018-09-18T17:22:52.777Z,38.90
2018-09-18T17:25:27.755Z,40.00
2018-09-18T17:27:59.970Z,38.80
2018-09-18T17:30:32.159Z,40.80
2018-09-18T17:33:04.366Z,43.80
2018-09-18T17:35:36.757Z,40.90
2018-09-18T17:38:08.821Z,41.40
2018-09-18T17:40:41.019Z,44.70
2018-09-18T17:43:13.425Z,43.30
2018-09-18T17:45:45.506Z,44.30
2018-09-18T17:48:17.771Z,43.60
2018-09-18T17:50:50.152Z,41.50
2018-09-18T17:53:23.824Z,42.30
2018-09-18T17:55:56.432Z,41.00
2018-09-18T17:58:29.222Z,41.30
2018-09-18T18:01:01.625Z,41.70
2018-09-18T18:03:33.717Z,41.70
2018-09-18T18:06:06.019Z,41.10
2018-09-18T18:08:38.280Z,41.00
2018-09-18T18:11:10.714Z,41.20
2018-09-18T18:13:42.935Z,41.40
2018-09-18T18:16:15.437Z,40.90
2018-09-18T18:18:47.880Z,41.80
2018-09-18T18:21:20.115Z,41.50
2018-09-18T18:23:52.256Z,41.70
2018-09-18T18:26:24.378Z,40.90
2018-09-18T18:28:57.055Z,39.60
2018-09-18T18:31:29.332Z,40.40
2018-09-18T18:34:01.503Z,40.30
2018-09-18T18:36:34.874Z,40.40
2018-09-18T18:39:08.659Z,40.00
2018-09-18T18:41:41.284Z,41.60
2018-09-18T18:44:13.718Z,39.30
2018-09-18T18:46:45.911Z,39.60
2018-09-18T18:49:18.167Z,39.70
2018-09-18T18:51:50.365Z,39.00
2018-09-18T18:54:22.775Z,37.60
2018-09-18T18:56:55.386Z,37.80
2018-09-18T18:59:27.562Z,37.70
2018-09-18T19:01:59.655Z,37.30
2018-09-18T19:04:31.841Z,37.10
2018-09-18T19:07:04.042Z,37.40
2018-09-18T19:09:36.437Z,36.80
2018-09-18T19:12:08.515Z,36.40
2018-09-18T19:14:40.788Z,36.50
2018-09-18T19:17:13.123Z,35.80
2018-09-18T19:19:45.365Z,34.90
2018-09-18T19:22:17.901Z,37.60
2018-09-18T19:24:50.325Z,35.40
2018-09-18T19:27:22.657Z,34.80
2018-09-18T19:29:55.202Z,35.30
2018-09-18T19:32:27.425Z,32.70
2018-09-18T19:35:00.036Z,33.50
2018-09-18T19:37:32.126Z,32.60
2018-09-18T19:40:04.513Z,31.10
2018-09-18T19:42:36.840Z,30.60
2018-09-18T19:45:08.846Z,31.80
2018-09-18T19:47:41.617Z,29.90
2018-09-18T19:50:17.786Z,30.20
2018-09-18T19:52:50.214Z,29.60
2018-09-18T19:55:22.629Z,28.50
2018-09-18T19:57:54.819Z,28.30
2018-09-18T20:00:26.870Z,28.10
2018-09-18T20:02:59.236Z,28.70
2018-09-18T20:05:31.780Z,28.10
2018-09-18T20:08:04.653Z,26.90
2018-09-18T20:10:36.823Z,26.90
2018-09-18T20:13:09.137Z,28.20
2018-09-18T20:15:41.715Z,25.60
2018-09-18T20:18:14.267Z,25.80
2018-09-18T20:20:46.639Z,27.10
2018-09-18T20:23:19.116Z,25.80
2018-09-18T20:25:51.351Z,26.40
2018-09-18T20:28:23.421Z,26.60
2018-09-18T20:30:55.634Z,25.20
2018-09-18T20:33:28.171Z,26.20
2018-09-18T20:36:00.764Z,23.50
2018-09-18T20:38:33.312Z,23.60
2018-09-18T20:41:05.955Z,23.20
2018-09-18T20:43:38.098Z,23.20
2018-09-18T20:46:10.615Z,21.50
2018-09-18T20:48:43.231Z,21.60
2018-09-18T20:51:15.523Z,22.10
2018-09-18T20:53:47.945Z,21.30
2018-09-18T20:56:20.349Z,19.60
2018-09-18T20:58:53.557Z,21.00
2018-09-18T21:01:25.590Z,21.60
2018-09-18T21:03:57.664Z,19.20
2018-09-18T21:06:30.299Z,18.60
2018-09-18T21:09:02.620Z,18.60
2018-09-18T21:11:34.791Z,19.20
2018-09-18T21:14:07.044Z,19.60
2018-09-18T21:16:39.982Z,19.10
2018-09-18T21:19:12.427Z,17.60
2018-09-18T21:21:45.437Z,15.10
2018-09-18T21:24:17.551Z,15.80
2018-09-18T21:26:50.294Z,16.00
2018-09-18T21:29:22.391Z,15.50
2018-09-18T21:31:55.415Z,12.90
2018-09-18T21:34:27.929Z,13.80
2018-09-18T21:37:00.254Z,13.00
2018-09-18T21:39:32.343Z,10.70
2018-09-18T21:42:04.567Z,8.90
2018-09-18T21:44:36.943Z,10.10
2018-09-18T21:47:09.577Z,10.30
2018-09-18T21:49:42.078Z,8.20
2018-09-18T21:52:14.527Z,8.00
2018-09-18T21:54:46.534Z,8.30
2018-09-18T21:57:19.505Z,8.60
2018-09-18T21:59:51.714Z,8.70
2018-09-18T22:02:24.198Z,8.30
2018-09-18T22:04:56.510Z,8.50
2018-09-18T22:07:28.808Z,8.10
2018-09-18T22:10:01.062Z,8.20
2018-09-18T22:12:33.443Z,8.40
2018-09-18T22:15:06.010Z,8.40
2018-09-18T22:17:38.350Z,8.70
2018-09-18T22:20:10.941Z,8.60
2018-09-18T22:22:43.141Z,7.50
2018-09-18T22:25:15.749Z,7.60
2018-09-18T22:27:47.934Z,7.10
2018-09-18T22:30:20.186Z,6.60
2018-09-18T22:32:52.313Z,6.70
2018-09-18T22:35:24.776Z,6.50
2018-09-18T22:37:57.035Z,6.10
2018-09-18T22:40:29.269Z,7.10
2018-09-18T22:43:02.250Z,7.40
2018-09-18T22:45:34.527Z,7.40
2018-09-18T22:48:07.046Z,7.60
2018-09-18T22:50:39.628Z,7.70
2018-09-18T22:53:12.164Z,8.30
2018-09-18T22:55:44.507Z,8.90
2018-09-18T22:58:16.815Z,6.70
2018-09-18T23:00:51.170Z,8.10
2018-09-18T23:03:23.618Z,7.70
2018-09-18T23:05:55.773Z,8.10
2018-09-18T23:08:27.960Z,8.40
2018-09-18T23:11:00.052Z,8.30
2018-09-18T23:13:32.279Z,8.10
2018-09-18T23:16:05.998Z,8.40
2018-09-18T23:18:38.710Z,7.60
2018-09-18T23:21:11.426Z,8.00
2018-09-18T23:23:44.274Z,6.70
2018-09-18T23:26:18.776Z,8.10
2018-09-18T23:28:51.408Z,7.60
2018-09-18T23:31:24.835Z,7.50
2018-09-18T23:33:57.442Z,7.00
2018-09-18T23:36:30.003Z,6.90
2018-09-18T23:39:03.843Z,7.70
2018-09-18T23:41:36.380Z,7.00
2018-09-18T23:44:09.756Z,6.70
2018-09-18T23:46:42.177Z,6.10
2018-09-18T23:49:14.638Z,6.40
2018-09-18T23:51:46.730Z,6.10
2018-09-18T23:54:19.768Z,6.10
2018-09-18T23:56:52.186Z,5.80
2018-09-18T23:59:25.745Z,6.30
